Time;durP1;ratioP1;P1;durP2;ratioP2;P2;SDS_P1;SDS_P2;PMS_P1;PMS_P2;Temp;Humidity;BMP_temperature;BMP_pressure;BME280_temperature;BME280_humidity;BME280_pressure;Samples;Min_cycle;Max_cycle;Signal;HPM_P1;HPM_P2
2022/06/17 00:01:40;;;;;;;8.40;6.60;;;14.20;99.90;;;;;;5045954;28;20744;-79
2022/06/17 00:04:07;;;;;;;7.70;6.80;;;14.20;99.90;;;;;;5051578;28;20052;-79
2022/06/17 00:06:43;;;;;;;10.68;7.82;;;14.10;99.90;;;;;;5059126;28;20046;-78
2022/06/17 00:09:14;;;;;;;7.38;6.38;;;14.20;99.90;;;;;;5047029;28;20032;-78
2022/06/17 00:11:41;;;;;;;8.70;6.75;;;14.10;99.90;;;;;;5053001;28;20045;-78
2022/06/17 00:14:20;;;;;;;8.30;6.55;;;14.10;99.90;;;;;;5048226;28;20410;-77
2022/06/17 00:16:46;;;;;;;8.15;6.25;;;14.10;99.90;;;;;;5056526;28;20044;-77
2022/06/17 00:19:12;;;;;;;9.05;6.47;;;13.90;99.90;;;;;;5025656;28;20124;-78
2022/06/17 00:21:43;;;;;;;6.97;6.35;;;13.80;99.90;;;;;;5034400;28;20044;-78
2022/06/17 00:24:17;;;;;;;8.38;7.30;;;13.80;99.90;;;;;;5049755;28;20056;-78
2022/06/17 00:26:44;;;;;;;10.43;7.22;;;13.70;99.90;;;;;;5061887;28;20036;-79
2022/06/17 00:29:18;;;;;;;8.05;7.22;;;13.70;99.90;;;;;;5077649;28;20044;-79
2022/06/17 00:31:44;;;;;;;9.48;7.15;;;13.60;99.90;;;;;;5046888;28;20043;-78
2022/06/17 00:34:10;;;;;;;8.27;7.13;;;13.70;99.90;;;;;;5048811;28;20128;-79
2022/06/17 00:36:41;;;;;;;8.05;6.88;;;13.70;99.90;;;;;;5029042;28;20048;-78
2022/06/17 00:39:23;;;;;;;7.72;6.93;;;13.70;99.90;;;;;;5058685;28;20050;-79
2022/06/17 00:41:53;;;;;;;7.75;6.53;;;13.70;99.90;;;;;;5070655;28;20503;-79
2022/06/17 00:44:49;;;;;;;11.73;7.50;;;13.50;99.90;;;;;;5056593;28;20044;-78
2022/06/17 00:47:44;;;;;;;9.65;7.03;;;13.50;99.90;;;;;;5068265;28;20044;-78
2022/06/17 00:50:15;;;;;;;10.18;8.00;;;13.50;99.90;;;;;;5068339;28;20048;-78
2022/06/17 00:53:02;;;;;;;11.23;7.28;;;13.40;99.90;;;;;;5048199;28;20133;-79
2022/06/17 00:55:40;;;;;;;8.60;7.68;;;13.40;99.90;;;;;;5082480;28;20051;-78
2022/06/17 00:58:23;;;;;;;8.68;7.78;;;13.40;99.90;;;;;;5042289;28;20049;-78
2022/06/17 01:00:53;;;;;;;13.13;8.88;;;13.50;99.90;;;;;;5078472;28;21112;-77
2022/06/17 01:03:28;;;;;;;9.38;8.48;;;13.40;99.90;;;;;;5060367;28;20047;-78
2022/06/17 01:06:02;;;;;;;8.98;8.10;;;13.30;99.90;;;;;;5057979;28;20557;-78
2022/06/17 01:11:47;;;;;;;9.23;8.30;;;13.20;99.90;;;;;;5010421;28;20055;-79
2022/06/17 01:14:26;;;;;;;9.50;8.45;;;13.30;99.90;;;;;;5043724;28;20044;-80
2022/06/17 01:16:57;;;;;;;10.30;9.15;;;13.30;99.90;;;;;;5056288;28;20076;-79
2022/06/17 01:19:47;;;;;;;11.73;9.98;;;13.40;99.90;;;;;;5071362;28;20114;-79
2022/06/17 01:22:26;;;;;;;11.32;10.23;;;13.50;99.90;;;;;;5040106;28;20126;-79
2022/06/17 01:25:21;;;;;;;13.50;11.10;;;13.40;99.90;;;;;;5079521;28;20048;-79
2022/06/17 01:28:17;;;;;;;11.70;10.52;;;13.40;99.90;;;;;;5053593;28;20043;-79
2022/06/17 01:30:58;;;;;;;10.50;9.40;;;13.50;99.90;;;;;;5086284;28;20080;-79
2022/06/17 01:33:32;;;;;;;11.52;10.35;;;13.40;99.90;;;;;;5030838;28;20498;-80
2022/06/17 01:36:12;;;;;;;11.88;10.68;;;13.40;99.90;;;;;;5055455;28;20051;-80
2022/06/17 01:38:50;;;;;;;11.70;10.60;;;13.30;99.90;;;;;;5064918;28;20047;-80
2022/06/17 01:41:31;;;;;;;12.68;11.43;;;13.40;99.90;;;;;;5045938;28;20044;-79
2022/06/17 01:44:09;;;;;;;13.02;11.60;;;13.40;99.90;;;;;;5076320;28;20074;-79
2022/06/17 01:46:46;;;;;;;12.32;10.77;;;13.40;99.90;;;;;;5073512;28;20628;-79
2022/06/17 01:50:05;;;;;;;12.27;11.07;;;13.40;99.90;;;;;;5043392;28;20041;-79
2022/06/17 01:52:53;;;;;;;12.45;10.32;;;13.50;99.90;;;;;;5049965;28;20050;-79
2022/06/17 01:55:34;;;;;;;12.35;11.07;;;13.40;99.90;;;;;;5053378;28;20051;-79
2022/06/17 01:58:21;;;;;;;13.20;11.27;;;13.40;99.90;;;;;;5050443;28;20464;-79
2022/06/17 02:00:56;;;;;;;12.88;11.55;;;13.40;99.90;;;;;;5065729;28;20119;-79
2022/06/17 02:04:06;;;;;;;12.85;11.48;;;13.40;99.90;;;;;;5047561;28;20052;-79
2022/06/17 02:06:43;;;;;;;12.10;10.88;;;13.40;99.90;;;;;;5032338;28;20791;-80
2022/06/17 02:09:29;;;;;;;11.27;10.18;;;13.40;99.90;;;;;;5066210;28;20108;-80
2022/06/17 02:12:05;;;;;;;12.75;11.15;;;13.30;99.90;;;;;;5055907;28;20044;-80
2022/06/17 02:14:34;;;;;;;13.50;10.90;;;13.40;99.90;;;;;;5068959;28;20388;-79
2022/06/17 02:17:39;;;;;;;11.70;10.57;;;13.30;99.90;;;;;;5068453;28;20047;-79
2022/06/17 02:20:34;;;;;;;12.55;10.55;;;13.40;99.90;;;;;;5055858;28;20124;-79
2022/06/17 02:23:03;;;;;;;12.25;10.80;;;13.40;99.90;;;;;;5060105;28;20079;-80
2022/06/17 02:25:51;;;;;;;12.20;11.10;;;13.40;99.90;;;;;;5054762;28;20068;-80
2022/06/17 02:28:29;;;;;;;11.20;9.98;;;13.30;99.90;;;;;;5038006;28;20052;-80
2022/06/17 02:30:56;;;;;;;12.23;11.02;;;13.30;99.90;;;;;;5073421;28;20685;-79
2022/06/17 02:33:26;;;;;;;11.10;9.93;;;13.30;99.90;;;;;;5056661;28;20050;-80
2022/06/17 02:36:24;;;;;;;12.68;11.30;;;13.30;99.90;;;;;;5049209;28;20230;-79
2022/06/17 02:38:52;;;;;;;13.77;10.10;;;13.30;99.90;;;;;;5071156;28;20050;-80
2022/06/17 02:41:24;;;;;;;12.13;10.93;;;13.20;99.90;;;;;;5048864;28;20044;-80
2022/06/17 02:44:23;;;;;;;12.38;11.15;;;13.20;99.90;;;;;;5032082;28;20067;-79
2022/06/17 02:47:16;;;;;;;12.60;10.95;;;13.10;99.90;;;;;;5076520;28;20226;-79
2022/06/17 02:49:51;;;;;;;11.93;10.60;;;13.20;99.90;;;;;;5097648;28;20075;-79
2022/06/17 02:52:34;;;;;;;14.20;11.27;;;13.20;99.90;;;;;;5048558;28;20861;-79
2022/06/17 02:55:19;;;;;;;13.30;10.95;;;13.20;99.90;;;;;;5060591;28;20079;-80
2022/06/17 02:58:39;;;;;;;11.82;10.65;;;13.20;99.90;;;;;;5061508;28;20045;-80
2022/06/17 03:01:26;;;;;;;14.25;10.85;;;13.20;99.90;;;;;;5056998;28;20055;-79
2022/06/17 03:04:18;;;;;;;14.27;11.13;;;13.20;99.90;;;;;;5051777;28;20044;-80
2022/06/17 03:06:59;;;;;;;10.88;9.63;;;13.30;99.90;;;;;;5056000;28;20102;-80
2022/06/17 03:09:34;;;;;;;13.82;10.18;;;13.30;99.90;;;;;;5061924;28;20044;-79
2022/06/17 03:12:31;;;;;;;11.98;10.60;;;13.30;99.90;;;;;;5044974;28;20080;-79
2022/06/17 03:15:07;;;;;;;12.18;10.73;;;13.40;99.90;;;;;;5089068;28;20489;-79
2022/06/17 03:17:42;;;;;;;12.20;10.38;;;13.40;99.90;;;;;;5047522;28;20531;-79
2022/06/17 03:20:24;;;;;;;14.40;10.23;;;13.40;99.90;;;;;;5043915;28;20137;-79
2022/06/17 03:23:09;;;;;;;12.13;10.82;;;13.40;99.90;;;;;;5044134;28;20612;-79
2022/06/17 03:25:56;;;;;;;13.82;11.20;;;13.50;99.90;;;;;;5056308;28;20047;-79
2022/06/17 03:28:52;;;;;;;12.98;10.85;;;13.50;99.90;;;;;;5050333;28;20037;-80
2022/06/17 03:31:29;;;;;;;14.07;10.57;;;13.60;99.90;;;;;;5022665;28;20476;-79
2022/06/17 03:34:10;;;;;;;13.05;10.80;;;13.60;99.90;;;;;;5075957;28;20120;-79
2022/06/17 03:37:17;;;;;;;13.95;10.40;;;13.70;99.90;;;;;;5070174;28;20044;-80
2022/06/17 03:39:49;;;;;;;14.35;11.77;;;13.70;99.90;;;;;;5043491;28;20407;-80
2022/06/17 03:42:34;;;;;;;14.32;10.93;;;13.80;99.90;;;;;;5043429;28;20044;-78
2022/06/17 03:45:17;;;;;;;13.90;11.95;;;13.80;99.90;;;;;;5075063;28;20039;-77
2022/06/17 03:47:59;;;;;;;13.88;11.10;;;13.90;99.90;;;;;;5071072;28;20073;-78
2022/06/17 03:50:31;;;;;;;16.05;10.55;;;14.00;99.90;;;;;;5081416;28;20044;-78
2022/06/17 03:53:26;;;;;;;12.70;11.00;;;14.00;99.90;;;;;;5047344;28;20060;-78
2022/06/17 03:55:56;;;;;;;12.48;11.18;;;14.10;99.90;;;;;;5071186;28;20416;-78
2022/06/17 03:58:23;;;;;;;16.50;11.68;;;14.20;99.90;;;;;;5027206;28;20055;-78
2022/06/17 04:01:09;;;;;;;12.50;11.18;;;14.30;99.90;;;;;;5043164;28;20131;-78
2022/06/17 04:03:38;;;;;;;12.70;11.40;;;14.20;99.90;;;;;;5052076;28;20040;-78
2022/06/17 04:06:19;;;;;;;14.10;11.60;;;14.30;99.90;;;;;;5056386;28;20056;-78
2022/06/17 04:09:17;;;;;;;13.90;11.25;;;14.40;99.90;;;;;;5052924;28;20495;-78
2022/06/17 04:11:46;;;;;;;13.07;11.68;;;14.50;99.90;;;;;;5069695;28;20052;-78
2022/06/17 04:14:43;;;;;;;13.18;11.68;;;14.60;99.90;;;;;;5042646;28;20160;-78
2022/06/17 04:17:34;;;;;;;13.20;11.77;;;14.70;99.90;;;;;;5030551;28;20048;-78
2022/06/17 04:20:26;;;;;;;14.57;12.93;;;14.80;99.90;;;;;;5038788;28;20091;-78
2022/06/17 04:23:15;;;;;;;15.98;14.40;;;14.90;99.90;;;;;;5037792;28;20507;-77
2022/06/17 04:26:30;;;;;;;15.23;13.18;;;15.10;99.90;;;;;;5063128;28;20048;-78
2022/06/17 04:29:02;;;;;;;15.73;13.90;;;15.20;99.90;;;;;;5046051;28;20044;-77
2022/06/17 04:31:33;;;;;;;13.95;12.55;;;15.20;99.90;;;;;;5062716;28;20066;-77
2022/06/17 04:34:13;;;;;;;14.13;12.73;;;15.30;99.90;;;;;;5066241;28;20044;-77
2022/06/17 04:36:59;;;;;;;17.98;12.65;;;15.40;99.90;;;;;;5046109;28;20052;-76
2022/06/17 04:39:55;;;;;;;14.57;13.20;;;15.40;99.90;;;;;;5044821;28;20063;-76
2022/06/17 04:42:40;;;;;;;15.07;13.20;;;15.50;99.90;;;;;;5067024;28;20032;-77
2022/06/17 04:45:20;;;;;;;16.33;13.90;;;15.50;99.90;;;;;;5042764;28;20126;-77
2022/06/17 04:47:50;;;;;;;17.88;13.77;;;15.50;99.90;;;;;;5069395;28;20048;-77
2022/06/17 04:50:24;;;;;;;14.23;12.68;;;15.60;99.90;;;;;;5041963;28;20039;-77
2022/06/17 04:52:54;;;;;;;;;;;15.70;99.90;;;;;;5059678;28;20048;-77
2022/06/17 04:55:41;;;;;;;14.88;13.20;;;15.70;99.90;;;;;;5054778;28;20056;-77
2022/06/17 04:58:12;;;;;;;17.40;12.77;;;15.90;99.90;;;;;;5043415;28;20044;-77
2022/06/17 05:00:45;;;;;;;14.15;12.57;;;15.90;99.90;;;;;;5041502;28;20047;-77
2022/06/17 05:03:11;;;;;;;13.40;12.15;;;16.00;99.90;;;;;;5056289;28;20131;-77
2022/06/17 05:05:56;;;;;;;14.13;12.13;;;16.00;99.90;;;;;;5046355;28;20048;-77
2022/06/17 05:08:34;;;;;;;13.50;12.10;;;16.10;99.90;;;;;;5055583;28;20042;-78
2022/06/17 05:11:22;;;;;;;13.23;11.88;;;16.20;99.90;;;;;;5041883;28;20055;-78
2022/06/17 05:13:48;;;;;;;14.52;13.00;;;16.20;99.90;;;;;;5057256;28;20051;-78
2022/06/17 05:16:15;;;;;;;13.82;11.35;;;16.30;99.90;;;;;;5058823;28;20509;-78
2022/06/17 05:18:42;;;;;;;14.23;12.25;;;16.30;99.90;;;;;;5058868;28;20047;-78
2022/06/17 05:21:24;;;;;;;13.05;11.68;;;16.40;99.90;;;;;;5040547;28;20063;-78
2022/06/17 05:23:59;;;;;;;12.85;11.00;;;16.40;99.90;;;;;;5044142;28;20092;-77
2022/06/17 05:26:28;;;;;;;12.07;10.88;;;16.50;99.90;;;;;;5041006;28;20063;-78
2022/06/17 05:28:55;;;;;;;11.82;10.60;;;16.50;99.90;;;;;;5034931;28;20040;-78
2022/06/17 05:31:26;;;;;;;11.38;10.18;;;16.60;99.90;;;;;;5041256;28;20105;-77
2022/06/17 05:34:03;;;;;;;12.80;10.80;;;16.60;99.90;;;;;;5041498;28;20044;-76
2022/06/17 05:36:30;;;;;;;14.27;11.52;;;16.70;99.90;;;;;;5024575;28;20089;-76
2022/06/17 05:38:56;;;;;;;12.48;11.13;;;16.70;99.90;;;;;;5027924;28;20118;-79
2022/06/17 05:41:24;;;;;;;13.32;11.93;;;16.80;99.90;;;;;;5037116;28;20673;-79
2022/06/17 05:43:52;;;;;;;12.02;10.82;;;16.90;99.90;;;;;;5041403;28;20404;-77
2022/06/17 05:46:39;;;;;;;15.02;11.27;;;16.90;99.90;;;;;;5052206;28;20032;-77
2022/06/17 05:49:24;;;;;;;11.88;10.65;;;17.00;99.90;;;;;;5070663;28;20036;-77
2022/06/17 05:52:22;;;;;;;13.82;10.45;;;17.00;99.90;;;;;;5026962;28;20790;-76
2022/06/17 05:55:06;;;;;;;11.88;10.68;;;17.10;99.90;;;;;;5007990;28;20051;-77
2022/06/17 05:57:33;;;;;;;11.68;9.80;;;17.10;99.90;;;;;;5043259;28;20083;-79
2022/06/17 05:59:59;;;;;;;11.57;10.02;;;17.20;99.90;;;;;;5019276;28;20044;-78
2022/06/17 06:02:25;;;;;;;11.13;10.00;;;17.20;99.90;;;;;;5022252;28;20040;-76
2022/06/17 06:05:03;;;;;;;11.00;9.77;;;17.30;99.90;;;;;;5034136;28;20790;-77
2022/06/17 06:07:32;;;;;;;12.10;10.80;;;17.30;99.90;;;;;;5023212;28;20778;-77
2022/06/17 06:09:59;;;;;;;13.93;9.82;;;17.40;99.90;;;;;;5040127;28;20043;-77
2022/06/17 06:12:53;;;;;;;10.82;9.00;;;17.50;99.90;;;;;;5058074;28;20514;-78
2022/06/17 06:15:16;;;;;;;12.65;10.02;;;17.50;99.90;;;;;;5057637;28;20059;-77
2022/06/17 06:18:03;;;;;;;12.73;9.30;;;17.60;99.90;;;;;;5054408;28;20040;-79
2022/06/17 06:20:29;;;;;;;10.82;9.63;;;17.60;99.90;;;;;;5038642;28;20122;-78
2022/06/17 06:22:55;;;;;;;12.18;9.77;;;17.60;99.90;;;;;;5070961;28;20055;-78
2022/06/17 06:25:22;;;;;;;13.48;9.38;;;17.60;99.90;;;;;;5050986;28;20464;-78
2022/06/17 06:27:49;;;;;;;10.05;9.05;;;17.60;99.90;;;;;;5040712;28;20040;-78
2022/06/17 06:30:26;;;;;;;12.50;10.25;;;17.70;99.90;;;;;;5057440;28;20076;-78
2022/06/17 06:32:59;;;;;;;13.32;10.63;;;17.70;99.90;;;;;;5035754;28;20048;-78
2022/06/17 06:35:33;;;;;;;11.48;10.27;;;17.80;99.90;;;;;;5057586;28;20140;-77
2022/06/17 06:38:00;;;;;;;12.45;10.93;;;17.90;99.90;;;;;;5041726;28;20051;-77
2022/06/17 06:40:28;;;;;;;10.60;9.57;;;17.90;99.90;;;;;;5055279;28;20463;-79
2022/06/17 06:42:54;;;;;;;11.70;10.50;;;18.00;99.90;;;;;;5028078;28;20518;-78
2022/06/17 06:45:46;;;;;;;11.60;9.88;;;18.20;99.90;;;;;;5046106;28;20592;-83
2022/06/17 06:48:16;;;;;;;14.35;11.07;;;18.30;99.90;;;;;;5078296;28;20050;-77
2022/06/17 06:50:45;;;;;;;12.13;10.52;;;18.40;99.90;;;;;;5036814;28;20044;-77
2022/06/17 06:53:11;;;;;;;12.68;10.80;;;18.70;99.90;;;;;;5027385;28;20073;-77
2022/06/17 06:55:38;;;;;;;12.20;11.00;;;18.90;99.90;;;;;;5031385;28;20054;-77
2022/06/17 06:58:17;;;;;;;11.65;10.52;;;19.10;99.90;;;;;;5038391;28;20055;-77
2022/06/17 07:00:52;;;;;;;12.32;10.27;;;19.30;99.90;;;;;;5055437;28;20071;-77
2022/06/17 07:03:19;;;;;;;13.95;9.65;;;19.50;99.90;;;;;;5074136;28;20052;-78
2022/06/17 07:05:48;;;;;;;11.13;10.13;;;19.80;99.90;;;;;;5024797;28;20052;-77
2022/06/17 07:08:16;;;;;;;11.60;10.45;;;20.10;99.90;;;;;;5059484;28;20690;-76
2022/06/17 07:10:43;;;;;;;10.73;9.68;;;20.50;99.90;;;;;;5062130;28;20122;-78
2022/06/17 07:13:10;;;;;;;10.38;9.02;;;20.60;99.90;;;;;;5007306;28;20054;-78
2022/06/17 07:15:38;;;;;;;12.93;9.65;;;20.60;99.90;;;;;;5041383;28;20215;-78
2022/06/17 07:18:15;;;;;;;10.43;9.32;;;20.80;99.90;;;;;;5028102;28;20073;-77
2022/06/17 07:20:45;;;;;;;14.50;10.88;;;20.80;99.90;;;;;;5074763;28;20040;-78
2022/06/17 07:23:17;;;;;;;10.52;8.93;;;20.90;99.90;;;;;;5072900;28;20048;-78
2022/06/17 07:25:45;;;;;;;9.10;8.15;;;20.90;99.90;;;;;;5046447;28;20059;-78
2022/06/17 07:28:17;;;;;;;10.13;8.88;;;21.00;99.90;;;;;;5062294;28;20047;-78
2022/06/17 07:30:46;;;;;;;11.73;9.27;;;21.00;99.90;;;;;;5059298;28;20041;-77
2022/06/17 07:33:14;;;;;;;9.70;8.63;;;21.00;99.90;;;;;;5074472;28;20519;-78
2022/06/17 07:35:45;;;;;;;10.02;8.48;;;21.00;99.90;;;;;;5041899;28;20056;-78
2022/06/17 07:41:03;;;;;;;12.07;9.07;;;21.20;99.90;;;;;;5058929;28;20101;-78
2022/06/17 07:43:30;;;;;;;9.63;8.63;;;21.30;99.90;;;;;;5049899;28;20044;-77
2022/06/17 07:45:56;;;;;;;9.25;8.10;;;21.50;99.90;;;;;;5058688;28;20051;-78
2022/06/17 07:48:22;;;;;;;10.30;8.35;;;21.60;99.90;;;;;;5059993;28;20044;-77
2022/06/17 07:50:48;;;;;;;9.60;7.82;;;21.80;99.90;;;;;;5044295;28;20045;-79
2022/06/17 07:53:15;;;;;;;8.15;7.18;;;22.40;99.90;;;;;;5024885;28;20408;-80
2022/06/17 07:55:42;;;;;;;8.35;7.63;;;22.90;99.90;;;;;;5038352;28;20067;-80
2022/06/17 07:58:11;;;;;;;12.85;8.63;;;23.20;99.90;;;;;;5048484;28;20040;-80
2022/06/17 08:00:41;;;;;;;11.02;7.15;;;23.50;99.90;;;;;;5049137;28;20043;-78
2022/06/17 08:03:08;;;;;;;14.43;11.60;;;23.50;99.90;;;;;;5020925;28;20055;-78
2022/06/17 08:05:35;;;;;;;10.27;6.80;;;23.30;99.90;;;;;;5038268;28;20602;-79
2022/06/17 08:08:04;;;;;;;14.48;13.02;;;23.40;99.90;;;;;;5039239;28;20049;-84
2022/06/17 08:10:33;;;;;;;9.57;6.97;;;23.40;99.90;;;;;;5046706;28;20067;-79
2022/06/17 08:13:00;;;;;;;10.18;6.22;;;23.30;99.90;;;;;;5032281;28;20071;-79
2022/06/17 08:15:27;;;;;;;10.90;7.40;;;23.20;99.90;;;;;;5039283;28;20129;-78
2022/06/17 08:17:53;;;;;;;8.02;7.22;;;23.30;99.90;;;;;;5042666;28;20048;-79
2022/06/17 08:20:23;;;;;;;10.15;7.30;;;23.20;99.90;;;;;;5047006;28;20051;-79
2022/06/17 08:22:50;;;;;;;10.45;7.60;;;23.60;99.90;;;;;;5059718;28;20052;-79
2022/06/17 08:25:16;;;;;;;9.90;8.65;;;23.70;99.90;;;;;;5034245;28;20063;-79
2022/06/17 08:27:44;;;;;;;9.90;8.88;;;23.70;99.90;;;;;;5076804;28;20047;-78
2022/06/17 08:30:11;;;;;;;10.63;7.70;;;23.70;99.90;;;;;;5040923;28;20097;-79
2022/06/17 08:32:48;;;;;;;10.43;8.52;;;23.70;99.90;;;;;;5043919;28;20581;-80
2022/06/17 08:35:20;;;;;;;10.45;7.20;;;23.70;99.90;;;;;;5065525;28;20052;-79
2022/06/17 08:37:51;;;;;;;12.38;9.65;;;23.90;99.90;;;;;;5044599;28;20040;-79
2022/06/17 08:40:37;;;;;;;9.30;7.43;;;24.00;99.90;;;;;;5057404;28;20044;-79
2022/06/17 08:43:09;;;;;;;9.15;6.97;;;23.80;99.90;;;;;;5040123;28;20373;-79
2022/06/17 08:45:43;;;;;;;7.93;6.45;;;24.00;99.90;;;;;;5063827;28;20098;-80
2022/06/17 08:48:25;;;;;;;7.03;6.25;;;24.00;99.90;;;;;;5041334;28;20044;-79
2022/06/17 08:51:08;;;;;;;10.20;6.57;;;24.30;99.90;;;;;;5061946;28;20035;-79
2022/06/17 08:53:57;;;;;;;9.07;5.97;;;24.20;99.90;;;;;;5043082;28;20119;-80
2022/06/17 08:56:41;;;;;;;7.57;5.03;;;24.50;99.90;;;;;;5005563;28;20408;-80
2022/06/17 08:59:25;;;;;;;9.60;4.35;;;24.50;99.90;;;;;;5070936;28;20052;-80
2022/06/17 09:02:21;;;;;;;8.13;4.10;;;24.50;98.60;;;;;;5040198;28;20854;-79
2022/06/17 09:05:21;;;;;;;8.32;4.30;;;24.30;95.60;;;;;;5060085;28;20075;-79
2022/06/17 09:08:11;;;;;;;7.90;4.60;;;23.80;88.10;;;;;;5076746;28;20522;-79
2022/06/17 09:11:18;;;;;;;7.05;3.90;;;23.70;96.70;;;;;;5050828;28;20084;-80
2022/06/17 09:14:12;;;;;;;7.60;3.85;;;23.90;99.90;;;;;;5053520;28;20044;-79
2022/06/17 09:17:04;;;;;;;7.72;4.15;;;23.80;98.70;;;;;;5061935;28;20764;-79
2022/06/17 09:19:32;;;;;;;;;;;24.10;99.30;;;;;;5052423;28;20044;-79
2022/06/17 09:22:12;;;;;;;6.95;4.15;;;24.10;99.90;;;;;;5053004;28;19974;-79
2022/06/17 09:24:41;;;;;;;7.00;4.05;;;24.30;99.90;;;;;;5056226;28;20221;-79
2022/06/17 09:27:46;;;;;;;8.05;3.72;;;24.20;99.10;;;;;;5068990;28;20121;-79
2022/06/17 09:30:37;;;;;;;6.90;4.07;;;24.30;98.70;;;;;;5009980;28;20048;-79
2022/06/17 09:33:11;;;;;;;6.50;3.80;;;24.60;99.90;;;;;;5007188;28;20725;-79
2022/06/17 09:36:14;;;;;;;6.97;4.07;;;24.90;99.90;;;;;;5031318;28;20387;-80
2022/06/17 09:38:48;;;;;;;4.90;3.13;;;25.10;98.90;;;;;;5034156;28;20048;-79
2022/06/17 09:41:22;;;;;;;6.65;4.35;;;25.50;97.30;;;;;;5061128;28;20135;-79
2022/06/17 09:43:52;;;;;;;7.18;4.13;;;25.20;92.00;;;;;;5041599;28;20048;-79
2022/06/17 09:46:34;;;;;;;5.72;4.25;;;25.20;96.00;;;;;;5056229;28;20786;-79
2022/06/17 09:49:21;;;;;;;8.02;4.13;;;25.30;92.90;;;;;;5044199;28;20123;-79
2022/06/17 09:51:55;;;;;;;5.82;4.30;;;25.40;93.10;;;;;;5050171;28;20109;-80
2022/06/17 09:54:40;;;;;;;7.43;4.07;;;25.50;93.20;;;;;;5057378;28;20686;-79
2022/06/17 09:57:40;;;;;;;8.13;3.85;;;26.00;99.00;;;;;;5025310;28;20055;-79
2022/06/17 10:00:15;;;;;;;10.75;4.47;;;26.50;84.40;;;;;;4996294;28;20052;-80
2022/06/17 10:02:41;;;;;;;9.27;4.25;;;26.90;77.80;;;;;;5057643;28;20626;-81
2022/06/17 10:05:35;;;;;;;16.45;14.75;;;26.70;78.60;;;;;;5063204;28;20143;-85
2022/06/17 10:08:19;;;;;;;11.35;9.13;;;26.70;74.90;;;;;;5044588;28;20823;-83
2022/06/17 10:11:07;;;;;;;15.23;13.68;;;26.50;66.30;;;;;;5048635;28;20040;-83
2022/06/17 10:13:59;;;;;;;9.70;8.02;;;26.70;79.40;;;;;;5044459;28;20044;-82
2022/06/17 10:19:37;;;;;;;11.80;5.20;;;26.70;84.30;;;;;;5058030;28;20043;-82
2022/06/17 10:22:27;;;;;;;14.25;12.75;;;26.80;79.30;;;;;;5041614;28;20097;-84
2022/06/17 10:25:26;;;;;;;7.63;4.85;;;26.60;72.10;;;;;;5048388;28;20043;-83
2022/06/17 10:28:06;;;;;;;8.23;4.93;;;26.70;77.30;;;;;;5059987;28;20049;-89
2022/06/17 10:30:47;;;;;;;10.10;7.15;;;26.90;76.30;;;;;;5028046;28;20077;-79
2022/06/17 10:33:34;;;;;;;8.20;5.43;;;26.70;78.50;;;;;;5057018;28;20059;-85
2022/06/17 10:36:05;;;;;;;17.58;12.73;;;26.70;78.60;;;;;;5047044;28;20043;-82
2022/06/17 10:38:36;;;;;;;9.18;7.82;;;26.90;81.70;;;;;;5066294;28;20117;-83
2022/06/17 10:41:05;;;;;;;8.80;5.60;;;27.00;80.70;;;;;;5050852;28;20048;-82
2022/06/17 10:43:46;;;;;;;38.15;34.15;;;27.10;69.60;;;;;;5046807;28;20141;-82
2022/06/17 10:46:44;;;;;;;7.38;4.50;;;27.20;75.70;;;;;;5064358;28;20156;-82
2022/06/17 10:49:37;;;;;;;7.03;4.18;;;27.00;73.70;;;;;;5038376;28;20044;-83
2022/06/17 10:53:49;;;;;;;8.45;4.65;;;26.60;68.10;;;;;;5035431;28;20139;-82
2022/06/17 11:00:38;;;;;;;;;;;;;;;;;;;;;
2022/06/17 11:03:52;;;;;;;6.03;3.00;;;27.90;60.90;;;;;;5058724;28;20044;-82
2022/06/17 11:07:49;;;;;;;;;;;;;;;;;;;;;
2022/06/17 11:14:20;;;;;;;7.97;5.28;;;27.80;66.50;;;;;;5076016;28;20048;-81
2022/06/17 11:16:46;;;;;;;11.02;4.13;;;27.30;55.70;;;;;;5043510;28;20051;-81
2022/06/17 11:19:22;;;;;;;7.63;5.05;;;27.00;59.50;;;;;;5025311;28;20048;-80
2022/06/17 11:22:09;;;;;;;6.63;4.50;;;27.20;63.40;;;;;;5077479;28;20098;-81
2022/06/17 11:24:42;;;;;;;6.00;3.70;;;27.20;58.90;;;;;;5057927;28;20044;-82
2022/06/17 11:27:26;;;;;;;10.07;5.35;;;26.90;65.50;;;;;;5043643;28;20063;-81
2022/06/17 11:30:16;;;;;;;7.43;3.80;;;27.00;67.70;;;;;;5025804;28;20101;-80
2022/06/17 11:32:56;;;;;;;6.95;5.35;;;26.70;65.20;;;;;;5046113;28;20047;-81
2022/06/17 11:35:37;;;;;;;8.65;4.40;;;27.00;66.40;;;;;;5042971;28;20044;-81
2022/06/17 11:38:15;;;;;;;8.63;4.80;;;27.40;63.00;;;;;;5072776;28;20052;-81
2022/06/17 11:41:01;;;;;;;6.10;3.40;;;27.90;58.60;;;;;;5043731;28;20040;-81
2022/06/17 11:43:40;;;;;;;6.15;4.63;;;28.30;58.30;;;;;;5057955;28;20063;-81
2022/06/17 11:46:18;;;;;;;6.75;4.47;;;28.30;54.50;;;;;;5057721;28;20062;-82
2022/06/17 11:48:57;;;;;;;6.93;3.50;;;28.70;54.20;;;;;;5043323;28;20044;-82
2022/06/17 11:52:00;;;;;;;5.55;3.45;;;28.90;53.70;;;;;;5059335;28;20093;-82
2022/06/17 11:54:46;;;;;;;6.15;3.75;;;29.20;54.10;;;;;;5040385;28;20048;-81
2022/06/17 11:57:17;;;;;;;5.50;4.30;;;29.00;50.50;;;;;;5061688;28;20039;-82
2022/06/17 11:59:53;;;;;;;9.50;3.72;;;28.70;49.70;;;;;;5056753;28;20039;-82
2022/06/17 12:02:28;;;;;;;6.65;3.55;;;29.30;51.30;;;;;;5060261;28;20044;-86
2022/06/17 12:05:23;;;;;;;11.88;9.43;;;30.00;51.90;;;;;;5023673;28;20064;-82
2022/06/17 12:08:11;;;;;;;9.13;6.47;;;30.10;49.40;;;;;;5023994;28;20126;-82
2022/06/17 12:10:49;;;;;;;9.95;4.60;;;30.20;49.00;;;;;;5061005;28;20903;-82
2022/06/17 12:13:49;;;;;;;7.70;5.95;;;29.80;47.30;;;;;;5040207;28;20044;-82
2022/06/17 12:16:27;;;;;;;7.05;5.10;;;30.00;48.00;;;;;;5044236;28;20050;-82
2022/06/17 12:29:58;;;;;;;8.27;6.55;;;29.80;46.10;;;;;;5012685;28;20124;-85
2022/06/17 12:32:51;;;;;;;5.03;3.00;;;30.80;47.10;;;;;;4954916;28;20543;-81
2022/06/17 12:45:53;;;;;;;10.07;6.82;;;31.10;43.70;;;;;;4938034;28;20114;-87
2022/06/17 12:48:28;;;;;;;5.38;3.92;;;30.90;44.60;;;;;;4985432;28;20060;-87
2022/06/17 12:54:31;;;;;;;5.72;2.97;;;31.00;44.10;;;;;;5055978;28;20132;-86
2022/06/17 12:57:12;;;;;;;7.13;3.33;;;31.70;45.00;;;;;;5048982;28;20138;-87
2022/06/17 12:59:46;;;;;;;15.55;12.77;;;31.80;43.80;;;;;;5062638;28;20139;-88
2022/06/17 13:02:15;;;;;;;4.82;2.58;;;31.50;44.00;;;;;;5057303;28;20543;-83
2022/06/17 13:04:49;;;;;;;6.75;3.95;;;31.60;44.40;;;;;;5061090;28;20082;-83
2022/06/17 13:07:50;;;;;;;8.63;5.57;;;31.40;44.00;;;;;;5056281;28;20151;-84
2022/06/17 13:10:46;;;;;;;6.53;4.70;;;31.30;43.20;;;;;;5061718;28;20047;-81
2022/06/17 13:13:34;;;;;;;4.97;3.63;;;31.40;43.10;;;;;;5039541;28;20332;-83
2022/06/17 13:16:14;;;;;;;9.63;5.38;;;31.60;44.40;;;;;;5059065;28;20664;-83
2022/06/17 13:18:49;;;;;;;5.00;3.00;;;31.60;43.70;;;;;;5055514;28;20782;-82
2022/06/17 13:21:47;;;;;;;5.72;3.33;;;31.30;42.10;;;;;;5058842;28;20067;-82
2022/06/17 13:24:26;;;;;;;6.72;3.25;;;32.10;43.80;;;;;;5060882;28;20092;-83
2022/06/17 13:27:01;;;;;;;4.38;2.75;;;32.10;42.20;;;;;;5043757;28;20052;-83
2022/06/17 13:29:48;;;;;;;6.93;3.97;;;32.00;41.90;;;;;;5071473;28;20036;-85
2022/06/17 13:32:32;;;;;;;8.27;3.78;;;32.20;42.80;;;;;;5027962;28;20043;-82
2022/06/17 13:35:21;;;;;;;6.97;4.38;;;32.20;43.10;;;;;;5039630;28;20044;-83
2022/06/17 13:38:15;;;;;;;8.25;6.35;;;32.00;43.30;;;;;;5056000;28;20048;-83
2022/06/17 13:40:53;;;;;;;6.43;4.18;;;31.50;44.00;;;;;;5075041;28;20055;-83
2022/06/17 13:43:38;;;;;;;6.35;2.80;;;31.30;42.00;;;;;;5079097;28;20062;-82
2022/06/17 13:46:45;;;;;;;7.72;4.53;;;30.70;42.30;;;;;;5045899;28;20768;-82
2022/06/17 13:49:41;;;;;;;7.00;4.10;;;30.60;42.80;;;;;;5057023;28;20396;-81
2022/06/17 13:52:54;;;;;;;6.20;4.13;;;30.80;43.10;;;;;;5076787;28;20070;-85
2022/06/17 13:55:44;;;;;;;5.80;3.22;;;30.80;44.00;;;;;;5037050;28;20067;-86
2022/06/17 13:58:24;;;;;;;5.33;3.40;;;31.20;42.90;;;;;;5079233;28;20071;-80
2022/06/17 14:00:58;;;;;;;7.05;5.90;;;31.60;43.50;;;;;;5045821;28;20051;-83
2022/06/17 14:04:01;;;;;;;4.65;2.83;;;31.80;42.90;;;;;;5063784;28;20054;-83
2022/06/17 14:06:59;;;;;;;5.72;3.60;;;32.10;42.40;;;;;;5035844;28;20544;-84
2022/06/17 14:09:40;;;;;;;6.68;5.03;;;31.90;41.20;;;;;;5036097;28;20047;-83
2022/06/17 14:12:44;;;;;;;6.53;4.45;;;31.70;41.10;;;;;;5054739;28;20188;-82
2022/06/17 14:15:17;;;;;;;7.63;4.03;;;31.20;42.40;;;;;;5042974;28;20044;-84
2022/06/17 14:17:46;;;;;;;;;;;31.40;42.80;;;;;;5039495;28;20056;-84
2022/06/17 14:20:45;;;;;;;7.45;3.65;;;31.70;44.40;;;;;;5054608;28;19926;-84
2022/06/17 14:23:28;;;;;;;4.22;2.58;;;32.00;43.50;;;;;;5042802;28;21577;-84
2022/06/17 14:26:01;;;;;;;8.15;3.72;;;31.60;42.90;;;;;;5040046;28;20040;-83
2022/06/17 14:28:29;;;;;;;6.55;3.58;;;31.40;43.40;;;;;;5025263;28;20037;-83